Time;durP1;ratioP1;P1;durP2;ratioP2;P2;SDS_P1;SDS_P2;PMS_P1;PMS_P2;Temp;Humidity;BMP_temperature;BMP_pressure;BME280_temperature;BME280_humidity;BME280_pressure;Samples;Min_cycle;Max_cycle;Signal;HPM_P1;HPM_P2
2022/04/18 00:01:34;;;;;;;1.50;0.87;;;;;;;4.00;100.00;98614.22;5054885;28;20180;-86
2022/04/18 00:04:00;;;;;;;1.27;0.90;;;;;;;4.15;100.00;98666.78;5053127;28;20483;-86
2022/04/18 00:06:26;;;;;;;0.87;0.87;;;;;;;3.93;100.00;98632.16;5054760;28;20861;-87
2022/04/18 00:08:51;;;;;;;1.63;0.93;;;;;;;5.06;100.00;98803.09;5053456;28;20168;-88
2022/04/18 00:11:16;;;;;;;1.00;0.90;;;;;;;6.37;100.00;98997.81;5053314;28;20177;-85
2022/04/18 00:13:42;;;;;;;1.93;1.10;;;;;;;3.29;100.00;98480.03;5053404;28;20863;-87
2022/04/18 00:16:07;;;;;;;1.33;1.00;;;;;;;5.58;100.00;98891.28;5053261;28;20258;-87
2022/04/18 00:18:33;;;;;;;1.33;1.00;;;;;;;2.58;100.00;98343.47;5053921;28;20168;-86
2022/04/18 00:20:58;;;;;;;1.10;0.80;;;;;;;5.41;100.00;98825.13;5053111;28;20173;-87
2022/04/18 00:23:23;;;;;;;1.57;1.10;;;;;;;5.90;100.00;98909.88;5052782;28;20207;-87
2022/04/18 00:25:49;;;;;;;1.30;1.00;;;;;;;4.48;100.00;98723.78;5053865;28;20176;-88
2022/04/18 00:28:15;;;;;;;1.10;1.00;;;;;;;4.13;100.00;98636.66;5052835;28;20273;-87
2022/04/18 00:30:41;;;;;;;1.30;1.00;;;;;;;3.60;100.00;98532.63;5052160;28;20168;-86
2022/04/18 00:33:09;;;;;;;1.63;1.10;;;;;;;3.26;100.00;98549.88;5053568;28;20406;-86
2022/04/18 00:35:35;;;;;;;1.50;1.10;;;;;;;5.91;100.00;98988.56;5051840;28;20203;-86
2022/04/18 00:38:00;;;;;;;1.37;1.00;;;;;;;2.14;100.00;98373.31;5051719;28;20429;-87
2022/04/18 00:40:25;;;;;;;1.23;1.10;;;;;;;5.34;100.00;98916.75;5052078;28;20227;-87
2022/04/18 00:42:51;;;;;;;1.50;1.20;;;;;;;4.75;100.00;98769.59;5051643;28;20203;-88
2022/04/18 00:45:16;;;;;;;1.37;1.17;;;;;;;4.99;100.00;98796.03;5051913;28;20256;-86
2022/04/18 00:47:42;;;;;;;1.67;1.10;;;;;;;2.67;100.00;98341.47;5051608;28;20557;-86
2022/04/18 00:50:08;;;;;;;1.70;1.40;;;;;;;5.14;100.00;98796.84;5053080;28;20244;-88
2022/04/18 00:52:34;;;;;;;1.27;1.10;;;;;;;4.81;100.00;98708.91;5051966;28;20192;-85
2022/04/18 00:55:02;;;;;;;1.30;1.17;;;;;;;3.10;100.00;98421.38;5053246;28;20272;-87
2022/04/18 00:57:28;;;;;;;2.27;1.23;;;;;;;6.22;100.00;98920.75;5054147;28;20412;-87
2022/04/18 00:59:54;;;;;;;1.53;1.10;;;;;;;4.67;100.00;98652.97;5087449;28;20420;-87
2022/04/18 01:02:19;;;;;;;2.00;1.10;;;;;;;3.97;100.00;98535.56;5053231;28;20513;-88
2022/04/18 01:04:45;;;;;;;1.10;1.00;;;;;;;4.30;100.00;98591.63;5054539;28;20174;-86
2022/04/18 01:07:12;;;;;;;2.00;1.10;;;;;;;2.67;100.00;98324.00;5055088;28;20191;-86
2022/04/18 01:09:38;;;;;;;1.40;1.00;;;;;;;6.07;100.00;98945.91;5054412;28;20294;-87
2022/04/18 01:12:04;;;;;;;1.80;1.20;;;;;;;5.15;100.00;98826.19;5051841;28;20429;-87
2022/04/18 01:14:29;;;;;;;1.70;1.30;;;;;;;3.20;100.00;98496.13;5052351;28;20423;-86
2022/04/18 01:16:55;;;;;;;1.83;1.30;;;;;;;2.81;100.00;98480.56;5052573;28;20176;-86
2022/04/18 01:19:20;;;;;;;1.87;1.30;;;;;;;2.82;100.00;98459.81;5052406;28;20218;-86
2022/04/18 01:21:46;;;;;;;1.90;1.20;;;;;;;2.47;100.00;98421.91;5052844;28;20552;-87
2022/04/18 01:29:39;;;;;;;1.13;1.00;;;;;;;4.40;100.00;98750.06;5058026;28;20410;-86
2022/04/18 01:32:05;;;;;;;1.40;1.20;;;;;;;5.72;100.00;98941.47;5056862;28;20408;-87
2022/04/18 01:34:31;;;;;;;1.43;1.20;;;;;;;2.63;100.00;98381.19;5057786;28;20169;-87
2022/04/18 01:36:56;;;;;;;1.50;1.10;;;;;;;3.36;100.00;98508.72;5058199;28;20806;-88
2022/04/18 01:39:23;;;;;;;1.30;1.20;;;;;;;4.75;100.00;98730.34;5060063;28;20176;-87
2022/04/18 01:41:48;;;;;;;1.10;1.00;;;;;;;4.01;100.00;98578.34;5055493;28;20416;-87
2022/04/18 01:44:13;;;;;;;1.50;1.10;;;;;;;4.53;100.00;98666.44;5059175;28;20574;-85
2022/04/18 01:46:39;;;;;;;2.63;1.27;;;;;;;4.55;100.00;98670.75;5056312;28;20298;-84
2022/04/18 01:49:04;;;;;;;1.23;1.10;;;;;;;4.50;100.00;98631.19;5056476;28;20169;-87
2022/04/18 01:51:30;;;;;;;1.30;1.10;;;;;;;5.63;100.00;98804.53;5056184;28;20247;-86
2022/04/18 01:53:55;;;;;;;1.30;1.10;;;;;;;5.04;100.00;98694.31;5055351;28;20214;-87
2022/04/18 01:56:21;;;;;;;1.30;1.10;;;;;;;3.26;100.00;98398.97;5054710;28;20172;-87
2022/04/18 01:58:46;;;;;;;1.30;1.07;;;;;;;2.82;100.00;98358.97;5056054;28;20182;-87
2022/04/18 02:01:12;;;;;;;1.70;1.10;;;;;;;3.18;100.00;98475.19;5055068;28;20269;-87
2022/04/18 02:03:43;;;;;;;1.83;1.30;;;;;;;3.43;100.00;98508.31;5053966;28;20323;-86
2022/04/18 02:06:09;;;;;;;1.30;1.20;;;;;;;3.12;100.00;98417.34;5054623;28;20173;-87
2022/04/18 02:08:35;;;;;;;1.63;1.30;;;;;;;4.63;100.00;98702.09;5057176;28;20404;-86
2022/04/18 02:11:01;;;;;;;2.13;1.20;;;;;;;2.78;100.00;98415.41;5057482;28;20401;-87
2022/04/18 02:13:28;;;;;;;2.67;1.23;;;;;;;4.58;100.00;98697.63;5055853;28;20192;-87
2022/04/18 02:15:57;;;;;;;1.90;1.40;;;;;;;1.07;100.00;98142.44;5055430;28;20272;-86
2022/04/18 02:18:23;;;;;;;2.17;1.67;;;;;;;5.64;100.00;98909.19;5057427;28;20444;-88
2022/04/18 02:20:49;;;;;;;1.47;1.30;;;;;;;3.18;100.00;98515.19;5056256;28;20419;-86
2022/04/18 02:23:14;;;;;;;2.47;1.77;;;;;;;3.87;100.00;98574.25;5056614;28;20468;-86
2022/04/18 02:25:39;;;;;;;2.80;2.20;;;;;;;3.21;100.00;98480.38;5057255;28;20170;-86
2022/04/18 02:28:05;;;;;;;4.20;2.30;;;;;;;3.25;100.00;98482.25;5057765;28;20192;-86
2022/04/18 02:30:30;;;;;;;3.63;2.27;;;;;;;4.16;100.00;98659.38;5055859;28;20190;-87
2022/04/18 02:32:56;;;;;;;3.47;2.00;;;;;;;2.56;100.00;98354.13;5057183;28;20168;-86
2022/04/18 02:35:24;;;;;;;2.93;1.67;;;;;;;3.70;100.00;98597.47;5062849;28;20205;-87
2022/04/18 02:37:50;;;;;;;3.47;2.00;;;;;;;2.14;100.00;98307.59;5076637;28;20648;-87
2022/04/18 02:40:15;;;;;;;2.53;1.70;;;;;;;1.51;100.00;98195.75;5073729;28;21022;-86
2022/04/18 02:42:42;;;;;;;2.40;1.80;;;;;;;5.49;100.00;98885.78;5073571;28;20549;-88
2022/04/18 02:45:10;;;;;;;1.73;1.40;;;;;;;3.87;100.00;98615.94;5075252;28;20242;-87
2022/04/18 02:47:35;;;;;;;1.93;1.30;;;;;;;4.67;100.00;98773.28;5074717;28;20414;-87
2022/04/18 02:50:01;;;;;;;2.80;1.70;;;;;;;4.38;100.00;98708.16;5074917;28;20412;-86
2022/04/18 02:52:26;;;;;;;2.20;1.63;;;;;;;3.93;100.00;98597.09;5074970;28;20195;-86
2022/04/18 02:54:51;;;;;;;2.80;1.63;;;;;;;5.67;100.00;98905.22;5074718;28;20176;-87
2022/04/18 02:57:17;;;;;;;3.40;1.53;;;;;;;3.12;100.00;98460.69;5077251;28;20165;-87
2022/04/18 02:59:42;;;;;;;2.00;1.60;;;;;;;1.78;100.00;98266.38;5079439;28;20183;-86
2022/04/18 03:02:08;;;;;;;2.20;1.60;;;;;;;2.72;100.00;98406.72;5080025;28;20169;-87
2022/04/18 03:04:33;;;;;;;2.97;1.40;;;;;;;5.15;100.00;98847.91;5076332;28;20262;-87
2022/04/18 03:07:00;;;;;;;2.80;1.90;;;;;;;3.58;100.00;98584.22;5075904;28;20566;-86
2022/04/18 03:09:26;;;;;;;2.60;1.77;;;;;;;2.18;100.00;98369.38;5076198;28;20177;-87
2022/04/18 03:11:51;;;;;;;3.40;1.90;;;;;;;3.48;100.00;98582.84;5077042;28;20411;-85
2022/04/18 03:14:16;;;;;;;4.70;2.33;;;;;;;2.71;100.00;98460.81;5074253;28;20176;-84
2022/04/18 03:16:42;;;;;;;3.50;2.20;;;;;;;3.55;100.00;98631.59;5073488;28;20553;-87
2022/04/18 03:19:07;;;;;;;3.80;2.30;;;;;;;2.29;100.00;98400.81;5074615;28;20207;-87
2022/04/18 03:21:33;;;;;;;3.43;1.97;;;;;;;1.68;100.00;98312.31;5075294;28;20210;-85
2022/04/18 03:23:58;;;;;;;2.97;2.03;;;;;;;4.05;100.00;98712.97;5079373;28;20205;-86
2022/04/18 03:26:23;;;;;;;3.20;2.30;;;;;;;2.44;100.00;98426.72;5080399;28;20157;-87
2022/04/18 03:28:49;;;;;;;3.77;2.23;;;;;;;3.67;100.00;98654.84;5079829;28;20245;-85
2022/04/18 03:31:14;;;;;;;2.97;1.93;;;;;;;5.16;100.00;98883.13;5078906;28;20169;-87
2022/04/18 03:33:40;;;;;;;3.03;1.80;;;;;;;2.23;100.00;98413.81;5078779;28;20172;-87
2022/04/18 03:41:33;;;;;;;3.43;2.00;;;;;;;2.51;100.00;98420.44;5074484;28;20422;-86
2022/04/18 03:43:58;;;;;;;2.97;2.13;;;;;;;1.57;100.00;98270.91;5075201;28;20995;-87
2022/04/18 03:46:24;;;;;;;4.43;2.67;;;;;;;3.73;100.00;98619.28;5081539;28;20165;-86
2022/04/18 03:48:50;;;;;;;6.30;2.97;;;;;;;4.37;100.00;98739.03;5086362;28;20578;-87
2022/04/18 03:51:15;;;;;;;8.63;4.50;;;;;;;2.13;100.00;98326.69;5073365;28;20177;-86
2022/04/18 03:53:40;;;;;;;5.97;3.80;;;;;;;2.72;100.00;98397.56;5073489;28;20172;-86
2022/04/18 03:56:06;;;;;;;4.80;3.20;;;;;;;3.39;100.00;98513.91;5073214;28;20165;-88
2022/04/18 03:58:31;;;;;;;3.20;2.07;;;;;;;4.67;100.00;98770.78;5074547;28;20168;-85
2022/04/18 04:00:57;;;;;;;2.13;1.77;;;;;;;3.13;100.00;98532.41;5074996;28;20210;-87
2022/04/18 04:03:22;;;;;;;2.87;1.63;;;;;;;3.77;100.00;98631.19;5072577;28;20232;-86
2022/04/18 04:05:48;;;;;;;4.10;2.20;;;;;;;1.75;100.00;98246.22;5073701;28;20165;-85
2022/04/18 04:08:13;;;;;;;4.23;3.30;;;;;;;3.96;100.00;98648.97;5072465;28;20181;-86
2022/04/18 04:10:38;;;;;;;7.97;4.40;;;;;;;2.21;100.00;98332.97;5075520;28;20177;-86
2022/04/18 04:13:05;;;;;;;3.27;2.20;;;;;;;5.58;100.00;98913.88;5072167;28;20647;-87
2022/04/18 04:15:30;;;;;;;6.67;2.43;;;;;;;3.30;100.00;98481.75;5071906;28;20181;-86
2022/04/18 04:17:56;;;;;;;4.40;2.73;;;;;;;5.87;100.00;98904.69;5052490;28;20902;-87
2022/04/18 04:20:22;;;;;;;9.43;5.23;;;;;;;1.24;100.00;98129.31;5073208;28;20192;-87
2022/04/18 04:22:49;;;;;;;6.17;4.20;;;;;;;3.83;100.00;98557.31;5071883;28;20192;-87
2022/04/18 04:25:19;;;;;;;40.47;18.00;;;;;;;4.83;100.00;98757.50;5073515;28;20412;-87
2022/04/18 04:27:45;;;;;;;22.07;9.97;;;;;;;3.92;100.00;98605.41;5073952;28;20426;-87
2022/04/18 04:30:11;;;;;;;27.40;14.10;;;;;;;3.11;100.00;98456.47;5081430;28;20415;-86
2022/04/18 04:32:36;;;;;;;62.10;36.67;;;;;;;4.03;100.00;98568.44;5086443;28;20165;-86
2022/04/18 04:35:02;;;;;;;32.47;19.67;;;;;;;5.19;100.00;98747.78;5075544;28;20168;-87
2022/04/18 04:37:27;;;;;;;10.47;5.93;;;;;;;5.03;100.00;98780.34;5073734;28;20209;-86
2022/04/18 04:39:53;;;;;;;7.77;4.77;;;;;;;4.35;100.00;98640.34;5076723;28;20184;-85
2022/04/18 04:42:19;;;;;;;9.13;5.20;;;;;;;4.89;100.00;98718.53;5075883;28;20607;-85
2022/04/18 04:44:45;;;;;;;16.00;7.80;;;;;;;3.52;100.00;98514.69;5075805;28;20164;-87
2022/04/18 04:47:11;;;;;;;13.77;7.00;;;;;;;3.95;100.00;98608.09;5075633;28;20172;-88
2022/04/18 04:49:37;;;;;;;82.90;31.00;;;;;;;4.70;100.00;98676.56;5073889;28;20967;-87
2022/04/18 04:52:04;;;;;;;55.80;26.67;;;;;;;3.35;100.00;98447.00;5077172;28;20186;-87
2022/04/18 04:54:29;;;;;;;139.87;63.33;;;;;;;2.75;100.00;98364.38;5076613;28;20222;-86
2022/04/18 04:56:55;;;;;;;22.33;12.57;;;;;;;1.68;100.00;98245.00;5074694;28;20914;-86
2022/04/18 04:59:20;;;;;;;60.67;35.47;;;;;;;5.01;100.00;98753.47;5073909;28;20173;-86
2022/04/18 05:01:46;;;;;;;65.53;39.83;;;;;;;3.42;100.00;98459.06;5073319;28;20181;-86
2022/04/18 05:04:11;;;;;;;36.80;24.60;;;;;;;5.48;100.00;98804.59;5073141;28;20300;-86
2022/04/18 05:06:36;;;;;;;24.77;16.50;;;;;;;5.68;100.00;98815.69;5073730;28;20195;-87
2022/04/18 05:09:02;;;;;;;16.40;9.43;;;;;;;3.88;100.00;98540.03;5073189;28;20243;-87
2022/04/18 05:11:28;;;;;;;13.47;9.40;;;;;;;3.88;100.00;98500.84;5074409;28;20178;-89
2022/04/18 05:13:54;;;;;;;13.37;9.80;;;;;;;2.66;100.00;98317.28;5074200;28;20171;-87
2022/04/18 05:16:20;;;;;;;13.27;8.10;;;;;;;6.52;100.00;98913.16;5074226;28;20623;-87
2022/04/18 05:18:46;;;;;;;43.73;23.10;;;;;;;6.24;100.00;98914.13;5072955;28;20459;-88
2022/04/18 05:21:11;;;;;;;88.60;36.53;;;;;;;5.56;100.00;98783.25;5072785;28;20175;-87
2022/04/18 05:23:37;;;;;;;22.40;11.67;;;;;;;4.30;100.00;98499.81;5078294;28;20188;-86
2022/04/18 05:26:03;;;;;;;16.13;9.17;;;;;;;5.06;100.00;98622.50;5075326;28;20228;-87
2022/04/18 05:28:29;;;;;;;8.67;5.90;;;;;;;5.28;100.00;98707.28;5074746;28;20470;-86
2022/04/18 05:30:58;;;;;;;9.17;5.07;;;;;;;4.91;100.00;98653.44;5073122;28;20644;-86
2022/04/18 05:33:23;;;;;;;9.73;6.07;;;;;;;5.00;100.00;98671.50;5072543;28;20279;-86
2022/04/18 05:35:49;;;;;;;23.20;14.97;;;;;;;6.40;100.00;98897.44;5073164;28;20402;-87
2022/04/18 05:38:15;;;;;;;12.23;5.83;;;;;;;6.20;100.00;98841.91;5072083;28;20256;-86
2022/04/18 05:40:41;;;;;;;12.57;7.87;;;;;;;4.25;100.00;98498.72;5072510;28;20176;-87
2022/04/18 05:43:08;;;;;;;10.57;6.30;;;;;;;4.87;100.00;98637.38;5077929;28;20216;-88
2022/04/18 05:45:34;;;;;;;9.83;5.73;;;;;;;3.26;100.00;98414.84;5074657;28;20164;-88
2022/04/18 05:48:00;;;;;;;6.53;3.90;;;;;;;3.53;100.00;98473.03;5074830;28;21249;-86
2022/04/18 05:50:25;;;;;;;6.33;3.53;;;;;;;2.62;100.00;98269.53;5075791;28;20411;-88
2022/04/18 05:52:51;;;;;;;4.77;2.90;;;;;;;6.45;100.00;98931.22;5076976;28;20171;-87
2022/04/18 05:55:16;;;;;;;6.73;4.27;;;;;;;3.26;100.00;98413.97;5081253;28;20262;-88
2022/04/18 05:57:42;;;;;;;6.87;4.13;;;;;;;5.14;100.00;98773.41;5076572;28;20167;-88
2022/04/18 06:00:08;;;;;;;9.60;5.30;;;;;;;4.05;100.00;98555.22;5078544;28;20530;-88
2022/04/18 06:02:33;;;;;;;31.57;16.43;;;;;;;4.86;100.00;98684.94;5080047;28;20221;-90
2022/04/18 06:04:59;;;;;;;40.30;17.77;;;;;;;4.29;100.00;98555.69;5074990;28;20179;-86
2022/04/18 06:07:24;;;;;;;274.10;80.87;;;;;;;4.01;100.00;98488.22;5073163;28;20628;-86
2022/04/18 06:09:50;;;;;;;310.37;91.20;;;;;;;4.31;100.00;98551.66;5077983;28;20183;-85
2022/04/18 06:12:22;;;;;;;306.70;97.00;;;;;;;4.63;100.00;98549.22;5083099;28;20650;-86
2022/04/18 06:14:47;;;;;;;73.87;41.40;;;;;;;4.98;100.00;98597.81;5080784;28;20259;-87
2022/04/18 06:17:13;;;;;;;17.83;10.37;;;;;;;5.69;100.00;98800.69;5067729;28;20462;-87
2022/04/18 06:19:38;;;;;;;37.03;23.50;;;;;;;5.38;100.00;98721.19;5076746;28;20556;-87
2022/04/18 06:22:04;;;;;;;20.53;11.77;;;;;;;4.80;100.00;98677.97;5077515;28;20168;-85
2022/04/18 06:24:29;;;;;;;18.17;10.57;;;;;;;3.27;100.00;98441.53;5079827;28;20211;-87
2022/04/18 06:26:55;;;;;;;33.37;25.97;;;;;;;6.21;100.00;98979.31;5076859;28;20540;-85
2022/04/18 06:29:20;;;;;;;13.40;9.50;;;;;;;5.88;100.00;98923.09;5074907;28;20183;-85
2022/04/18 06:31:46;;;;;;;32.50;21.43;;;;;;;4.55;100.00;98627.28;5074787;28;20183;-86
2022/04/18 06:34:12;;;;;;;14.83;10.00;;;;;;;6.44;100.00;98939.56;5074317;28;20183;-86
2022/04/18 06:36:38;;;;;;;14.57;10.43;;;;;;;4.91;100.00;98640.91;5075467;28;20275;-86
2022/04/18 06:39:04;;;;;;;8.03;5.83;;;;;;;6.55;100.00;98955.19;5073782;28;20451;-86
2022/04/18 06:41:29;;;;;;;6.17;4.57;;;;;;;6.08;100.00;98844.63;5075812;28;20169;-85
2022/04/18 06:43:55;;;;;;;6.43;4.10;;;;;;;3.73;100.00;98460.00;5073980;28;20283;-86
2022/04/18 06:46:20;;;;;;;9.63;5.90;;;;;;;4.59;100.00;98594.06;5073957;28;20172;-87
2022/04/18 06:48:46;;;;;;;5.43;3.30;;;;;;;3.57;100.00;98434.91;5074290;28;20164;-87
2022/04/18 06:51:11;;;;;;;5.53;3.80;;;;;;;4.80;100.00;98698.00;5074323;28;20203;-87
2022/04/18 06:53:37;;;;;;;11.57;6.60;;;;;;;4.06;100.00;98553.59;5074795;28;20230;-86
2022/04/18 06:58:46;;;;;;;20.63;13.57;;;;;;;5.27;100.00;98688.00;5080180;28;20183;-86
2022/04/18 07:01:11;;;;;;;11.87;6.97;;;;;;;4.44;100.00;98501.41;5074297;28;20795;-86
2022/04/18 07:03:37;;;;;;;8.83;5.40;;;;;;;6.84;100.00;98886.25;5073596;28;20369;-87
2022/04/18 07:06:02;;;;;;;9.37;6.33;;;;;;;4.14;100.00;98503.16;5074063;28;20176;-86
2022/04/18 07:08:28;;;;;;;4.87;3.47;;;;;;;5.34;100.00;98736.09;5073831;28;20184;-86
2022/04/18 07:10:53;;;;;;;8.73;5.00;;;;;;;6.68;100.00;98987.72;5056750;28;20207;-87
2022/04/18 07:13:19;;;;;;;4.20;2.60;;;;;;;5.90;100.00;98813.56;5073751;28;20176;-85
2022/04/18 07:15:44;;;;;;;5.23;2.90;;;;;;;4.49;100.00;98491.63;5074616;28;20215;-89
2022/04/18 07:18:10;;;;;;;9.43;5.13;;;;;;;5.82;100.00;98671.63;5064998;28;20628;-87
2022/04/18 07:20:35;;;;;;;7.67;4.17;;;;;;;5.58;100.00;98607.59;5076672;28;20223;-89
2022/04/18 07:23:00;;;;;;;6.80;4.17;;;;;;;4.20;100.00;98402.44;5078835;28;20592;-87
2022/04/18 07:25:26;;;;;;;5.47;4.17;;;;;;;5.18;100.00;98633.19;5077326;28;20219;-87
2022/04/18 07:27:52;;;;;;;9.20;5.30;;;;;;;4.46;100.00;98561.63;5075267;28;20554;-88
2022/04/18 07:30:17;;;;;;;6.13;4.17;;;;;;;6.16;100.00;98878.56;5074684;28;20208;-88
2022/04/18 07:32:43;;;;;;;6.70;4.97;;;;;;;5.60;100.00;98799.34;5075187;28;20251;-88
2022/04/18 07:35:10;;;;;;;5.63;4.27;;;;;;;4.75;100.00;98559.84;5075749;28;20175;-87
2022/04/18 07:37:36;;;;;;;5.43;3.50;;;;;;;5.81;100.00;98752.75;5092523;28;20399;-87
2022/04/18 07:40:02;;;;;;;7.10;4.33;;;;;;;4.25;100.00;98461.16;5088353;28;20420;-88
2022/04/18 07:42:28;;;;;;;9.57;6.30;;;;;;;4.80;100.00;98504.09;5077768;28;20784;-88
2022/04/18 07:44:53;;;;;;;4.83;3.50;;;;;;;6.66;100.00;98780.56;5078336;28;20435;-85
2022/04/18 07:47:19;;;;;;;3.03;2.30;;;;;;;5.63;100.00;98669.81;5079848;28;20169;-88
2022/04/18 07:49:44;;;;;;;9.43;5.47;;;;;;;7.61;100.00;99001.69;5073683;28;20204;-88
2022/04/18 07:52:11;;;;;;;7.57;4.30;;;;;;;6.01;100.00;98852.66;5074959;28;20187;-88
2022/04/18 07:54:37;;;;;;;13.27;7.87;;;;;;;5.59;100.00;98725.69;5077586;28;20153;-89
2022/04/18 07:57:04;;;;;;;27.00;13.93;;;;;;;4.91;100.00;98596.66;5076528;28;20438;-89
2022/04/18 07:59:30;;;;;;;20.27;10.00;;;;;;;5.05;100.00;98660.94;5074276;28;20184;-88
2022/04/18 08:01:56;;;;;;;16.30;10.07;;;;;;;4.54;100.00;98542.84;5076769;28;20395;-87
2022/04/18 08:04:21;;;;;;;12.50;8.07;;;;;;;3.92;100.00;98427.66;5075537;28;20211;-88
2022/04/18 08:06:47;;;;;;;9.43;6.30;;;;;;;4.64;100.00;98623.59;5075394;28;20643;-87
2022/04/18 08:09:12;;;;;;;19.77;9.67;;;;;;;6.69;100.00;98966.81;5075022;28;20165;-87
2022/04/18 08:11:37;;;;;;;18.27;9.33;;;;;;;4.36;100.00;98540.22;5074758;28;20558;-87
2022/04/18 08:14:03;;;;;;;8.00;5.07;;;;;;;5.21;100.00;98627.47;5074092;28;20604;-88
2022/04/18 08:16:28;;;;;;;6.07;3.67;;;;;;;4.40;100.00;98496.13;5074735;28;20179;-88
2022/04/18 08:18:55;;;;;;;3.80;2.70;;;;;;;5.24;100.00;98618.47;5076186;28;20586;-88
2022/04/18 08:21:20;;;;;;;18.17;10.77;;;;;;;4.40;100.00;98418.47;5076369;28;20165;-87
2022/04/18 08:23:47;;;;;;;33.97;15.40;;;;;;;4.48;100.00;98389.66;5075257;28;20461;-88
2022/04/18 08:26:13;;;;;;;17.03;8.77;;;;;;;5.33;100.00;98465.84;5077154;28;20608;-86
2022/04/18 08:28:40;;;;;;;3.20;2.30;;;;;;;5.49;100.00;98479.16;5077783;28;20484;-88
2022/04/18 08:31:07;;;;;;;13.83;9.07;;;;;;;4.52;100.00;98358.97;5077732;28;20559;-89
2022/04/18 08:33:33;;;;;;;44.50;25.97;;;;;;;7.87;100.00;99012.16;5077833;28;20395;-87
2022/04/18 08:35:59;;;;;;;9.17;6.00;;;;;;;7.55;100.00;98945.16;5076146;28;20411;-89
2022/04/18 08:38:26;;;;;;;6.83;4.67;;;;;;;5.84;100.00;98760.47;5076206;28;20634;-88
2022/04/18 08:40:55;;;;;;;5.17;3.60;;;;;;;5.61;100.00;98695.63;5075194;28;20806;-89
2022/04/18 08:43:21;;;;;;;5.53;3.40;;;;;;;5.46;100.00;98634.63;5076325;28;20451;-88
2022/04/18 08:45:47;;;;;;;3.90;2.80;;;;;;;7.67;100.00;98961.69;5080103;28;20969;-89
2022/04/18 08:53:43;;;;;;;11.50;6.63;;;;;;;8.10;100.00;99041.84;5077652;28;20909;-88
2022/04/18 08:56:09;;;;;;;15.70;8.77;;;;;;;6.63;100.00;98774.53;5076534;28;20907;-86
2022/04/18 08:58:34;;;;;;;6.90;4.23;;;;;;;5.68;100.00;98552.94;5077252;28;20422;-87
2022/04/18 09:01:01;;;;;;;12.87;8.20;;;;;;;7.49;100.00;98826.47;5074389;28;20422;-87
2022/04/18 09:03:27;;;;;;;6.03;4.33;;;;;;;6.58;100.00;98672.84;5074709;28;20287;-88
2022/04/18 09:06:13;;;;;;;5.87;3.67;;;;;;;7.34;100.00;98740.16;5076424;28;20925;-86
2022/04/18 09:08:51;;;;;;;26.53;13.83;;;;;;;6.19;100.00;98644.16;5076055;28;20234;-86
2022/04/18 09:11:37;;;;;;;6.50;3.80;;;;;;;8.34;100.00;99048.06;5076166;28;20399;-88
2022/04/18 09:14:04;;;;;;;11.37;5.60;;;;;;;8.54;100.00;99031.34;5076455;28;20422;-86
2022/04/18 09:16:30;;;;;;;22.57;11.03;;;;;;;8.51;100.00;99041.28;5078290;28;20429;-87
2022/04/18 09:19:25;;;;;;;8.10;4.57;;;;;;;4.93;100.00;98554.94;5076842;28;20407;-87
2022/04/18 09:22:04;;;;;;;9.47;4.87;;;;;;;5.08;100.00;98573.28;5057190;28;20945;-88
2022/04/18 09:24:34;;;;;;;30.83;10.23;;;;;;;8.41;100.00;99039.13;5073382;28;20450;-87
2022/04/18 09:27:11;;;;;;;50.67;18.40;;;;;;;8.60;100.00;99034.13;5074126;28;20419;-87
2022/04/18 09:29:40;;;;;;;13.20;6.80;;;;;;;7.38;100.00;98909.06;5075701;28;20403;-86
2022/04/18 09:32:10;;;;;;;3.10;2.40;;;;;;;7.01;100.00;98764.63;5056641;28;20423;-87
2022/04/18 09:34:36;;;;;;;14.27;7.47;;;;;;;5.04;100.00;98458.56;5058133;28;20427;-88
2022/04/18 09:37:17;;;;;;;4.40;2.03;;;;;;;5.73;100.00;98553.13;5075157;28;20436;-86
2022/04/18 09:39:44;;;;;;;19.33;9.10;;;;;;;6.61;100.00;98708.22;5056691;28;20188;-87
2022/04/18 09:42:14;;;;;;;15.33;7.47;;;;;;;8.31;100.00;99007.59;5072813;28;20933;-88
2022/04/18 09:44:40;;;;;;;6.77;3.30;;;;;;;8.50;100.00;99010.16;5056464;28;20505;-87
2022/04/18 09:47:05;;;;;;;6.60;3.80;;;;;;;6.13;100.00;98659.81;5059731;28;20422;-87
2022/04/18 09:49:38;;;;;;;11.00;6.87;;;;;;;4.83;100.00;98412.38;5060895;28;20187;-89
2022/04/18 09:52:06;;;;;;;5.63;4.50;;;;;;;5.93;100.00;98694.00;5061023;28;20614;-87
2022/04/18 09:54:32;;;;;;;12.90;7.87;;;;;;;6.65;100.00;98934.75;5061113;28;20441;-85
2022/04/18 09:57:08;;;;;;;13.00;8.63;;;;;;;6.65;100.00;98904.56;5078620;28;20428;-86
2022/04/18 09:59:33;;;;;;;12.57;8.10;;;;;;;5.36;100.00;98633.25;5082377;28;20165;-87
2022/04/18 10:01:59;;;;;;;7.43;4.90;;;;;;;7.38;100.00;98989.66;5079466;28;20411;-86
2022/04/18 10:04:26;;;;;;;5.63;4.30;;;;;;;6.03;100.00;98724.59;5077358;28;20643;-86
2022/04/18 10:06:59;;;;;;;5.83;4.10;;;;;;;6.28;100.00;98773.66;5078264;28;20176;-85
2022/04/18 10:09:24;;;;;;;4.47;3.50;;;;;;;5.30;100.00;98628.78;5078226;28;20420;-86
2022/04/18 10:11:51;;;;;;;6.73;4.10;;;;;;;5.21;100.00;98564.75;5077454;28;20406;-86
2022/04/18 10:14:16;;;;;;;10.30;6.50;;;;;;;5.35;100.00;98608.97;5078785;28;20172;-86
2022/04/18 10:16:43;;;;;;;7.60;5.70;;;;;;;7.76;100.00;98990.63;5078090;28;20399;-87
2022/04/18 10:19:46;;;;;;;5.10;4.30;;;;;;;5.70;100.00;98655.94;5079277;28;20200;-86
2022/04/18 10:22:54;;;;;;;6.10;4.57;;;;;;;7.86;100.00;99060.81;5076916;28;20422;-87
2022/04/18 10:25:42;;;;;;;6.10;4.20;;;;;;;7.90;100.00;99055.16;5076595;28;20495;-87
2022/04/18 10:28:19;;;;;;;6.50;5.23;;;;;;;8.13;100.00;99057.13;5078960;28;20468;-87
2022/04/18 10:30:57;;;;;;;3.47;3.03;;;;;;;5.92;100.00;98671.31;5079120;28;20406;-87
2022/04/18 10:33:23;;;;;;;4.93;4.23;;;;;;;6.74;100.00;98708.84;5077973;28;20415;-87
2022/04/18 10:35:53;;;;;;;5.07;4.40;;;;;;;9.08;100.00;99050.59;5078258;28;20442;-87
2022/04/18 10:38:24;;;;;;;10.33;6.50;;;;;;;9.19;100.00;99031.72;5075789;28;20407;-87
2022/04/18 10:40:50;;;;;;;5.63;3.83;;;;;;;6.53;100.00;98650.88;5075492;28;20791;-87
2022/04/18 10:43:15;;;;;;;5.47;4.30;;;;;;;7.82;100.00;98830.53;5076827;28;20457;-87
2022/04/18 10:45:41;;;;;;;4.77;4.27;;;;;;;7.87;100.00;98826.56;5076481;28;20647;-87
2022/04/18 10:48:11;;;;;;;6.20;4.27;;;;;;;6.96;100.00;98607.56;5076030;28;20172;-87
2022/04/18 10:50:45;;;;;;;6.37;3.80;;;;;;;9.36;100.00;99041.75;5092798;28;20180;-86
2022/04/18 10:53:10;;;;;;;5.47;4.17;;;;;;;9.09;100.00;99044.75;5094560;28;20208;-87
2022/04/18 10:55:38;;;;;;;6.17;4.40;;;;;;;9.22;100.00;99039.44;5081212;28;20818;-87
2022/04/18 10:58:13;;;;;;;6.73;3.93;;;;;;;6.98;100.00;98658.81;5079125;28;20176;-86
2022/04/18 11:00:55;;;;;;;8.30;6.27;;;;;;;7.43;100.00;98736.41;5078657;28;20152;-87
2022/04/18 11:04:06;;;;;;;8.70;5.80;;;;;;;9.57;100.00;99040.91;5076611;28;20629;-87
2022/04/18 11:06:42;;;;;;;6.33;4.63;;;;;;;10.30;100.00;99037.19;5059188;28;21105;-86
2022/04/18 11:09:16;;;;;;;11.67;8.53;;;;;;;10.17;100.00;98981.84;5077327;28;20172;-86
2022/04/18 11:12:05;;;;;;;9.47;7.03;;;;;;;10.51;100.00;99036.34;5076714;28;20183;-87
2022/04/18 11:14:55;;;;;;;9.53;6.60;;;;;;;9.83;100.00;99028.53;5062650;28;20198;-86
2022/04/18 11:17:44;;;;;;;8.30;6.67;;;;;;;9.84;100.00;99042.91;5064105;28;20283;-85
2022/04/18 11:20:27;;;;;;;12.10;9.50;;;;;;;7.40;100.00;98602.84;5019101;28;20328;-86
2022/04/18 11:23:22;;;;;;;10.23;6.60;;;;;;;9.81;100.00;99034.31;5018476;28;20194;-87
2022/04/18 11:25:54;;;;;;;5.60;4.17;;;;;;;9.69;100.00;98915.91;5020406;28;20182;-85
2022/04/18 11:28:20;;;;;;;6.53;4.27;;;;;;;8.97;100.00;98805.25;5016161;28;20178;-87
2022/04/18 11:30:45;;;;;;;7.23;5.27;;;;;;;7.79;100.00;98603.66;4997436;28;20671;-87
2022/04/18 11:33:11;;;;;;;5.73;4.60;;;;;;;7.57;100.00;98624.56;5014102;28;20258;-86
2022/04/18 11:35:37;;;;;;;5.77;4.50;;;;;;;6.47;100.00;98446.09;5015402;28;20635;-86
2022/04/18 11:38:10;;;;;;;9.00;5.50;;;;;;;10.12;100.00;99032.22;5015336;28;20186;-86
2022/04/18 11:40:37;;;;;;;11.20;6.47;;;;;;;9.47;100.00;98996.72;5014174;28;20233;-89
2022/04/18 11:43:17;;;;;;;5.10;3.87;;;;;;;9.21;100.00;98935.00;5010439;28;20309;-88
2022/04/18 11:45:43;;;;;;;4.50;3.53;;;;;;;8.42;100.00;98756.72;4998084;28;20631;-87
2022/04/18 11:48:20;;;;;;;5.07;3.20;;;;;;;10.17;100.00;99042.53;5014016;28;20217;-85
2022/04/18 11:50:45;;;;;;;5.37;3.37;;;;;;;7.07;100.00;98538.44;5032456;28;20209;-85